Terminal Aerodrome Forecast
Issued by NWS Cleveland, OH

Home | Current Version | Previous Version | Graphics & Text | Print | Product List | Glossary On
Versions: 1 2 3 4 5 6 7 8 9 10 11 12 13 14 15 16 17 18 19 20 21 22 23 24 25 26 27 28
000
FTUS41 KCLE 291700
TAFCLE
TAF
KCLE 291729Z 2918/3024 19012G22KT 6SM -RASN SCT025 OVC040
      TEMPO 2918/2920 4SM -SN BR OVC020
     FM292200 23015G25KT 4SM -RASN OVC015
      TEMPO 2922/2923 2SM -SN OVC008
     FM292300 27015G25KT 3/4SM -SN BR OVC004
     FM300400 30015G25KT 4SM -SN BKN008 OVC015
     FM301300 30012G20KT P6SM SCT008 OVC015=

USA.gov is the U.S. government's official web portal to all federal, state and local government web resources and services.